createdAt,value
2017-09-12T00:01:45.887Z,14.20
2017-09-12T00:04:13.420Z,14.20
2017-09-12T00:06:40.923Z,14.30
2017-09-12T00:09:08.938Z,14.30
2017-09-12T00:11:36.443Z,14.20
2017-09-12T00:14:03.947Z,14.20
2017-09-12T00:16:31.446Z,14.20
2017-09-12T00:18:58.940Z,14.20
2017-09-12T00:21:26.618Z,14.30
2017-09-12T00:23:54.879Z,14.30
2017-09-12T00:26:22.546Z,14.40
2017-09-12T00:31:20.535Z,14.40
2017-09-12T00:33:48.037Z,14.50
2017-09-12T00:36:16.454Z,14.40
2017-09-12T00:38:43.967Z,14.40
2017-09-12T00:41:11.594Z,14.30
2017-09-12T00:43:39.256Z,14.30
2017-09-12T00:48:36.868Z,14.40
2017-09-12T00:51:04.870Z,14.40
2017-09-12T00:53:32.935Z,14.30
2017-09-12T00:56:00.601Z,14.30
2017-09-12T00:58:28.872Z,14.20
2017-09-12T01:00:56.374Z,14.20
2017-09-12T01:03:23.869Z,14.20
2017-09-12T01:05:52.885Z,14.20
2017-09-12T01:08:21.363Z,14.20
2017-09-12T01:10:49.008Z,14.20
2017-09-12T01:13:17.091Z,14.20
2017-09-12T01:15:45.351Z,14.20
2017-09-12T01:18:12.875Z,14.20
2017-09-12T01:20:40.373Z,14.30
2017-09-12T01:23:07.891Z,14.30
2017-09-12T01:25:35.986Z,14.30
2017-09-12T01:28:03.516Z,14.30
2017-09-12T01:30:31.791Z,14.40
2017-09-12T01:33:00.076Z,14.40
2017-09-12T01:37:57.351Z,14.50
2017-09-12T01:40:24.963Z,14.40
2017-09-12T01:42:52.475Z,14.50
2017-09-12T01:45:20.119Z,14.50
2017-09-12T01:47:48.191Z,14.50
2017-09-12T01:50:15.695Z,14.50
2017-09-12T01:52:44.130Z,14.50
2017-09-12T01:55:12.035Z,14.50
2017-09-12T01:57:39.638Z,14.50
2017-09-12T02:00:08.262Z,14.60
2017-09-12T02:02:36.159Z,14.60
2017-09-12T02:05:04.463Z,14.50
2017-09-12T02:07:32.328Z,14.50
2017-09-12T02:10:00.599Z,14.50
2017-09-12T02:12:28.499Z,14.50
2017-09-12T02:14:55.999Z,14.50
2017-09-12T02:17:23.499Z,14.50
2017-09-12T02:19:51.028Z,14.40
2017-09-12T02:22:18.689Z,14.40
2017-09-12T02:24:46.579Z,14.40
2017-09-12T02:27:14.207Z,14.40
2017-09-12T02:29:41.812Z,14.40
2017-09-12T02:32:10.822Z,14.40
2017-09-12T02:34:38.323Z,14.40
2017-09-12T02:37:06.588Z,14.40
2017-09-12T02:39:34.964Z,14.40
2017-09-12T02:42:02.459Z,14.40
2017-09-12T02:44:30.066Z,14.40
2017-09-12T02:49:26.612Z,14.40
2017-09-12T02:54:24.634Z,14.50
2017-09-12T02:56:52.151Z,14.50
2017-09-12T02:59:19.642Z,14.40
2017-09-12T03:01:47.527Z,14.40
2017-09-12T03:04:16.530Z,14.30
2017-09-12T03:06:44.165Z,14.30
2017-09-12T03:09:11.774Z,14.30
2017-09-12T03:11:40.031Z,14.40
2017-09-12T03:14:08.295Z,14.30
2017-09-12T03:16:36.563Z,14.30
2017-09-12T03:19:04.080Z,14.30
2017-09-12T03:21:31.587Z,14.30
2017-09-12T03:23:59.988Z,14.30
2017-09-12T03:28:56.346Z,14.30
2017-09-12T03:31:23.843Z,14.20
2017-09-12T03:33:52.143Z,14.20
2017-09-12T03:36:19.631Z,14.20
2017-09-12T03:38:47.160Z,14.20
2017-09-12T03:41:14.782Z,14.20
2017-09-12T03:43:42.394Z,14.20
2017-09-12T03:46:09.943Z,14.20
2017-09-12T03:48:38.216Z,14.20
2017-09-12T03:51:05.706Z,14.20
2017-09-12T03:53:34.363Z,14.20
2017-09-12T03:56:02.816Z,14.20
2017-09-12T03:58:30.895Z,14.10
2017-09-12T04:00:58.543Z,14.10
2017-09-12T04:05:56.367Z,14.10
2017-09-12T04:08:23.885Z,14.10
2017-09-12T04:10:51.435Z,14.10
2017-09-12T04:13:19.496Z,14.00
2017-09-12T04:18:16.003Z,14.00
2017-09-12T04:20:43.893Z,14.10
2017-09-12T04:23:11.797Z,14.10
2017-09-12T04:25:39.398Z,14.10
2017-09-12T04:28:06.897Z,14.00
2017-09-12T04:30:34.546Z,14.00
2017-09-12T04:33:02.203Z,14.00
2017-09-12T04:35:29.807Z,14.00
2017-09-12T04:37:57.481Z,14.00
2017-09-12T04:40:24.960Z,14.10
2017-09-12T04:42:52.463Z,14.00
2017-09-12T04:45:20.083Z,14.10
2017-09-12T04:47:47.580Z,14.00
2017-09-12T04:50:15.095Z,14.00
2017-09-12T04:52:43.355Z,14.00
2017-09-12T04:55:11.615Z,14.00
2017-09-12T04:57:40.018Z,14.00
2017-09-12T05:00:07.526Z,14.00
2017-09-12T05:02:35.129Z,14.00
2017-09-12T05:05:03.015Z,14.00
2017-09-12T05:07:30.907Z,14.00
2017-09-12T05:09:58.512Z,14.00
2017-09-12T05:14:55.997Z,14.00
2017-09-12T05:19:53.319Z,14.00
2017-09-12T05:22:21.586Z,14.00
2017-09-12T05:24:49.082Z,13.90
2017-09-12T05:27:17.047Z,13.90
2017-09-12T05:29:44.700Z,14.00
2017-09-12T05:32:12.210Z,14.00
2017-09-12T05:34:39.729Z,14.00
2017-09-12T05:37:08.496Z,13.90
2017-09-12T05:39:36.019Z,13.90
2017-09-12T05:42:03.914Z,13.90
2017-09-12T05:44:31.879Z,13.80
2017-09-12T05:46:59.539Z,13.90
2017-09-12T05:49:27.068Z,13.90
2017-09-12T05:51:55.326Z,13.90
2017-09-12T05:54:22.839Z,13.90
2017-09-12T05:56:50.339Z,13.90
2017-09-12T05:59:18.995Z,13.90
2017-09-12T06:01:46.482Z,13.80
2017-09-12T06:04:14.169Z,13.80
2017-09-12T06:09:11.143Z,13.90
2017-09-12T06:11:38.652Z,13.90
2017-09-12T06:14:06.958Z,13.80
2017-09-12T06:16:34.503Z,13.80
2017-09-12T06:19:02.112Z,13.90
2017-09-12T06:21:29.611Z,13.80
2017-09-12T06:23:57.284Z,13.80
2017-09-12T06:26:26.375Z,13.80
2017-09-12T06:28:54.302Z,13.90
2017-09-12T06:31:22.724Z,13.80
2017-09-12T06:33:51.379Z,13.80
2017-09-12T06:36:19.067Z,13.80
2017-09-12T06:38:47.141Z,13.70
2017-09-12T06:41:15.419Z,13.70
2017-09-12T06:43:44.079Z,13.70
2017-09-12T06:46:11.571Z,13.70
2017-09-12T06:48:39.526Z,13.70
2017-09-12T06:51:07.031Z,13.70
2017-09-12T06:53:34.540Z,13.60
2017-09-12T06:56:02.433Z,13.60
2017-09-12T07:00:58.836Z,13.70
2017-09-12T07:03:26.491Z,13.60
2017-09-12T07:05:53.994Z,13.60
2017-09-12T07:08:22.271Z,13.60
2017-09-12T07:10:50.534Z,13.60
2017-09-12T07:13:18.032Z,13.70
2017-09-12T07:15:45.532Z,13.70
2017-09-12T07:18:13.432Z,13.70
2017-09-12T07:20:41.331Z,13.80
2017-09-12T07:23:08.867Z,13.90
2017-09-12T07:25:37.503Z,13.90
2017-09-12T07:28:05.107Z,13.90
2017-09-12T07:30:32.723Z,13.90
2017-09-12T07:33:01.855Z,14.00
2017-09-12T07:35:30.951Z,14.00
2017-09-12T07:40:27.317Z,14.00
2017-09-12T07:42:54.935Z,14.00
2017-09-12T07:45:23.210Z,13.90
2017-09-12T07:47:50.735Z,13.90
2017-09-12T07:52:47.488Z,13.80
2017-09-12T07:55:15.014Z,13.90
2017-09-12T07:57:42.535Z,13.80
2017-09-12T08:00:11.627Z,13.80
2017-09-12T08:02:39.166Z,13.80
2017-09-12T08:05:07.982Z,13.80
2017-09-12T08:07:35.475Z,13.80
2017-09-12T08:10:02.993Z,13.80
2017-09-12T08:12:30.489Z,13.90
2017-09-12T08:19:56.582Z,13.90
2017-09-12T08:22:24.474Z,13.80
2017-09-12T08:24:52.123Z,13.80
2017-09-12T08:27:19.630Z,13.90
2017-09-12T08:29:47.119Z,13.90
2017-09-12T08:32:14.632Z,13.90
2017-09-12T08:34:42.522Z,14.00
2017-09-12T08:37:10.038Z,14.10
2017-09-12T08:39:37.534Z,14.00
2017-09-12T08:42:06.563Z,14.00
2017-09-12T08:44:34.085Z,14.10
2017-09-12T08:47:02.014Z,14.10
2017-09-12T08:49:29.514Z,14.20
2017-09-12T08:51:57.015Z,14.30
2017-09-12T08:54:25.455Z,14.20
2017-09-12T08:56:53.928Z,14.20
2017-09-12T08:59:21.431Z,14.20
2017-09-12T09:01:48.934Z,14.20
2017-09-12T09:04:16.852Z,14.30
2017-09-12T09:06:44.343Z,14.30
2017-09-12T09:09:11.862Z,14.20
2017-09-12T09:11:39.354Z,14.20
2017-09-12T09:14:08.006Z,14.20
2017-09-12T09:16:35.616Z,14.20
2017-09-12T09:19:03.263Z,14.20
2017-09-12T09:21:30.935Z,14.20
2017-09-12T09:23:58.426Z,14.30
2017-09-12T09:26:25.919Z,14.30
2017-09-12T09:28:53.484Z,14.40
2017-09-12T09:31:21.006Z,14.30
2017-09-12T09:33:48.596Z,14.40
2017-09-12T09:36:16.259Z,14.40
2017-09-12T09:38:43.746Z,14.40
2017-09-12T09:41:11.371Z,14.50
2017-09-12T09:43:38.869Z,14.50
2017-09-12T09:46:06.387Z,14.60
2017-09-12T09:48:33.927Z,14.60
2017-09-12T09:51:01.444Z,14.60
2017-09-12T09:53:29.147Z,14.50
2017-09-12T09:55:56.708Z,14.50
2017-09-12T09:58:24.332Z,14.60
2017-09-12T10:00:52.241Z,14.60
2017-09-12T10:03:19.747Z,14.50
2017-09-12T10:05:48.027Z,14.50
2017-09-12T10:08:16.422Z,14.50
2017-09-12T10:10:43.939Z,14.50
2017-09-12T10:15:41.175Z,14.50
2017-09-12T10:18:08.707Z,14.60
2017-09-12T10:20:36.226Z,14.60
2017-09-12T10:23:03.816Z,14.60
2017-09-12T10:25:31.727Z,14.60
2017-09-12T10:27:59.996Z,14.70
2017-09-12T10:30:28.275Z,14.70
2017-09-12T10:32:55.899Z,14.70
2017-09-12T10:35:23.422Z,14.80
2017-09-12T10:37:51.695Z,14.80
2017-09-12T10:40:19.605Z,14.80
2017-09-12T10:42:47.099Z,14.90
2017-09-12T10:47:43.450Z,14.90
2017-09-12T10:50:10.962Z,14.90
2017-09-12T10:52:38.600Z,14.90
2017-09-12T10:55:06.284Z,14.90
2017-09-12T10:57:33.781Z,14.90
2017-09-12T11:00:02.062Z,14.90
2017-09-12T11:02:30.043Z,15.00
2017-09-12T11:04:57.699Z,15.00
2017-09-12T11:07:25.360Z,15.10
2017-09-12T11:09:53.625Z,15.00
2017-09-12T11:12:22.630Z,15.10
2017-09-12T11:14:50.181Z,15.20
2017-09-12T11:17:17.831Z,15.10
2017-09-12T11:19:45.327Z,15.10
2017-09-12T11:22:12.823Z,15.00
2017-09-12T11:24:41.818Z,14.90
2017-09-12T11:27:09.710Z,14.90
2017-09-12T11:29:37.211Z,14.90
2017-09-12T11:32:05.218Z,14.90
2017-09-12T11:34:32.879Z,14.90
2017-09-12T11:37:00.379Z,15.00
2017-09-12T11:39:27.876Z,15.10
2017-09-12T11:41:56.883Z,15.10
2017-09-12T11:44:25.647Z,15.20
2017-09-12T11:46:53.926Z,15.30
2017-09-12T11:49:22.192Z,15.30
2017-09-12T11:51:51.399Z,15.30
2017-09-12T11:54:18.914Z,15.30
2017-09-12T11:56:46.515Z,15.30
2017-09-12T11:59:14.135Z,15.30
2017-09-12T12:01:42.423Z,15.30
2017-09-12T12:04:10.123Z,15.40
2017-09-12T12:06:37.649Z,15.40
2017-09-12T12:09:05.643Z,15.50
2017-09-12T12:11:33.165Z,15.40
2017-09-12T12:14:02.280Z,15.50
2017-09-12T12:16:29.790Z,15.50
2017-09-12T12:18:57.290Z,15.60
2017-09-12T12:21:25.360Z,15.70
2017-09-12T12:23:53.018Z,15.70
2017-09-12T12:26:21.501Z,15.70
2017-09-12T12:28:49.167Z,15.60
2017-09-12T12:31:16.683Z,15.50
2017-09-12T12:33:44.943Z,15.60
2017-09-12T12:36:13.231Z,15.60
2017-09-12T12:38:42.038Z,15.60
2017-09-12T12:41:09.647Z,15.50
2017-09-12T12:43:37.142Z,15.40
2017-09-12T12:46:04.655Z,15.20
2017-09-12T12:48:32.262Z,15.10
2017-09-12T12:51:00.331Z,14.80
2017-09-12T12:53:27.827Z,14.60
2017-09-12T12:55:55.357Z,14.40
2017-09-12T12:58:22.912Z,14.30
2017-09-12T13:00:50.434Z,14.30
2017-09-12T13:03:18.823Z,14.40
2017-09-12T13:05:46.487Z,14.40
2017-09-12T13:08:14.556Z,14.40
2017-09-12T13:10:42.214Z,14.30
2017-09-12T13:13:09.706Z,14.40
2017-09-12T13:15:37.326Z,14.40
2017-09-12T13:18:04.819Z,14.40
2017-09-12T13:20:32.311Z,14.40
2017-09-12T13:23:00.575Z,14.40
2017-09-12T13:25:28.167Z,14.30
2017-09-12T13:27:55.679Z,14.20
2017-09-12T13:30:23.179Z,14.10
2017-09-12T13:32:51.107Z,14.20
2017-09-12T13:35:19.206Z,14.10
2017-09-12T13:37:46.734Z,14.00
2017-09-12T13:40:15.145Z,13.90
2017-09-12T13:42:43.220Z,13.80
2017-09-12T13:45:11.474Z,13.80
2017-09-12T13:47:39.734Z,13.90
2017-09-12T13:50:08.363Z,13.90
2017-09-12T13:52:37.595Z,14.00
2017-09-12T13:55:05.098Z,14.00
2017-09-12T13:57:32.639Z,14.00
2017-09-12T14:00:00.131Z,13.90
2017-09-12T14:02:28.391Z,13.90
2017-09-12T14:04:57.463Z,13.80
2017-09-12T14:07:24.960Z,13.80
2017-09-12T14:09:53.008Z,13.80
2017-09-12T14:12:20.503Z,13.80
2017-09-12T14:14:48.094Z,13.80
2017-09-12T14:17:15.594Z,13.80
2017-09-12T14:19:43.207Z,13.80
2017-09-12T14:22:10.698Z,13.80
2017-09-12T14:24:38.226Z,13.80
2017-09-12T14:27:06.595Z,13.80
2017-09-12T14:29:34.094Z,13.80
2017-09-12T14:32:02.107Z,13.90
2017-09-12T14:34:29.615Z,14.00
2017-09-12T14:36:58.271Z,14.00
2017-09-12T14:39:25.763Z,14.00
2017-09-12T14:41:53.287Z,14.00
2017-09-12T14:44:20.784Z,14.10
2017-09-12T14:46:48.714Z,14.10
2017-09-12T14:49:16.207Z,14.00
2017-09-12T14:51:44.487Z,14.10
2017-09-12T14:54:12.831Z,14.10
2017-09-12T14:56:40.339Z,14.00
2017-09-12T14:59:07.856Z,14.10
2017-09-12T15:01:36.271Z,14.20
2017-09-12T15:04:03.987Z,14.20
2017-09-12T15:06:31.514Z,14.30
2017-09-12T15:08:59.042Z,14.30
2017-09-12T15:11:26.562Z,14.30
2017-09-12T15:16:23.048Z,14.30
2017-09-12T15:18:50.551Z,14.30
2017-09-12T15:21:18.063Z,14.20
2017-09-12T15:23:46.694Z,14.20
2017-09-12T15:26:14.287Z,14.20
2017-09-12T15:28:41.951Z,14.10
2017-09-12T15:31:09.475Z,14.10
2017-09-12T15:33:37.892Z,14.00
2017-09-12T15:36:05.960Z,14.00
2017-09-12T15:38:33.629Z,14.00
2017-09-12T15:41:01.895Z,14.00
2017-09-12T15:43:29.382Z,14.00
2017-09-12T15:45:56.986Z,14.00
2017-09-12T15:48:24.646Z,14.00
2017-09-12T15:50:52.547Z,14.00
2017-09-12T15:53:20.834Z,14.00
2017-09-12T15:55:48.324Z,14.20
2017-09-12T15:58:16.603Z,14.20
2017-09-12T16:00:44.862Z,14.20
2017-09-12T16:03:13.275Z,14.20
2017-09-12T16:05:40.919Z,14.20
2017-09-12T16:08:08.478Z,14.20
2017-09-12T16:10:36.875Z,14.20
2017-09-12T16:13:04.803Z,14.30
2017-09-12T16:15:33.435Z,14.20
2017-09-12T16:18:01.055Z,14.20
2017-09-12T16:20:28.715Z,14.10
2017-09-12T16:22:57.004Z,14.10
2017-09-12T16:25:25.065Z,14.10
2017-09-12T16:27:52.959Z,14.00
2017-09-12T16:30:20.593Z,14.00
2017-09-12T16:32:48.095Z,13.90
2017-09-12T16:35:16.014Z,13.90
2017-09-12T16:37:43.555Z,13.90
2017-09-12T16:40:11.175Z,13.80
2017-09-12T16:42:40.174Z,13.70
2017-09-12T16:45:08.455Z,13.50
2017-09-12T16:50:05.126Z,13.40
2017-09-12T16:52:32.623Z,13.40
2017-09-12T16:55:00.236Z,13.40
2017-09-12T16:59:56.778Z,13.40
2017-09-12T17:02:25.062Z,13.40
2017-09-12T17:04:54.070Z,13.40
2017-09-12T17:07:23.248Z,13.50
2017-09-12T17:09:50.899Z,13.50
2017-09-12T17:12:18.561Z,13.30
2017-09-12T17:14:46.225Z,13.30
2017-09-12T17:17:13.871Z,13.20
2017-09-12T17:24:39.112Z,13.30
2017-09-12T17:27:06.635Z,13.20
2017-09-12T17:29:35.443Z,13.20
2017-09-12T17:32:03.102Z,13.20
2017-09-12T17:34:30.599Z,13.20
2017-09-12T17:36:58.220Z,13.10
2017-09-12T17:39:25.883Z,13.10
2017-09-12T17:41:53.547Z,13.10
2017-09-12T17:44:21.601Z,13.10
2017-09-12T17:46:49.114Z,13.10
2017-09-12T17:49:16.608Z,13.10
2017-09-12T17:51:44.169Z,13.00
2017-09-12T17:54:11.671Z,13.00
2017-09-12T17:56:39.289Z,13.00
2017-09-12T17:59:07.183Z,13.00
2017-09-12T18:01:34.683Z,13.00
2017-09-12T18:04:02.960Z,13.00
2017-09-12T18:06:31.221Z,13.00
2017-09-12T18:08:59.134Z,12.90
2017-09-12T18:11:27.027Z,12.90
2017-09-12T18:13:54.736Z,12.90
2017-09-12T18:16:22.228Z,12.90
2017-09-12T18:18:49.756Z,13.00
2017-09-12T18:21:17.312Z,13.00
2017-09-12T18:23:44.957Z,12.90
2017-09-12T18:26:12.458Z,12.80
2017-09-12T18:28:39.979Z,12.70
2017-09-12T18:31:08.750Z,12.60
2017-09-12T18:33:36.824Z,12.60
2017-09-12T18:36:04.500Z,12.60
2017-09-12T18:38:32.542Z,12.50
2017-09-12T18:41:00.031Z,12.40
2017-09-12T18:43:27.659Z,12.50
2017-09-12T18:45:55.935Z,12.40
2017-09-12T18:48:23.474Z,12.40
2017-09-12T18:50:51.753Z,12.40
2017-09-12T18:53:19.271Z,12.40
2017-09-12T18:55:46.767Z,12.50
2017-09-12T18:58:14.290Z,12.60
2017-09-12T19:00:41.883Z,12.60
2017-09-12T19:03:09.419Z,12.60
2017-09-12T19:05:36.927Z,12.60
2017-09-12T19:08:04.438Z,12.70
2017-09-12T19:10:31.943Z,12.70
2017-09-12T19:12:59.469Z,12.80
2017-09-12T19:15:27.372Z,12.80
2017-09-12T19:17:55.091Z,12.80
2017-09-12T19:20:22.596Z,12.70
2017-09-12T19:22:50.123Z,12.70
2017-09-12T19:25:17.651Z,12.60
2017-09-12T19:27:46.122Z,12.60
2017-09-12T19:30:13.796Z,12.70
2017-09-12T19:32:41.310Z,12.70
2017-09-12T19:35:08.891Z,12.60
2017-09-12T19:37:36.408Z,12.50
2017-09-12T19:40:03.919Z,12.40
2017-09-12T19:45:01.154Z,12.40
2017-09-12T19:47:29.503Z,12.40
2017-09-12T19:49:56.995Z,12.40
2017-09-12T19:52:25.707Z,12.40
2017-09-12T19:54:53.239Z,12.30
2017-09-12T19:57:20.733Z,12.30
2017-09-12T19:59:49.241Z,12.30
2017-09-12T20:02:17.522Z,12.40
2017-09-12T20:04:45.526Z,12.40
2017-09-12T20:07:13.229Z,12.40
2017-09-12T20:09:42.055Z,12.40
2017-09-12T20:12:09.715Z,12.40
2017-09-12T20:14:37.990Z,12.40
2017-09-12T20:17:05.482Z,12.50
2017-09-12T20:19:33.013Z,12.60
2017-09-12T20:22:01.639Z,12.60
2017-09-12T20:24:29.155Z,12.60
2017-09-12T20:26:56.709Z,12.50
2017-09-12T20:29:24.347Z,12.50
2017-09-12T20:31:51.859Z,12.50
2017-09-12T20:34:19.374Z,12.50
2017-09-12T20:36:47.635Z,12.50
2017-09-12T20:39:15.565Z,12.60
2017-09-12T20:41:43.574Z,12.60
2017-09-12T20:44:11.086Z,12.60
2017-09-12T20:46:38.580Z,12.60
2017-09-12T20:49:06.091Z,12.60
2017-09-12T20:51:33.583Z,12.60
2017-09-12T20:54:01.143Z,12.60
2017-09-12T20:56:28.799Z,12.60
2017-09-12T20:58:56.464Z,12.60
2017-09-12T21:01:24.086Z,12.50
2017-09-12T21:03:51.771Z,12.50
2017-09-12T21:06:19.435Z,12.50
2017-09-12T21:08:46.948Z,12.50
2017-09-12T21:11:14.454Z,12.50
2017-09-12T21:13:42.009Z,12.50
2017-09-12T21:16:09.511Z,12.40
2017-09-12T21:18:37.028Z,12.40
2017-09-12T21:21:04.522Z,12.40
2017-09-12T21:23:32.498Z,12.40
2017-09-12T21:26:00.087Z,12.40
2017-09-12T21:28:27.639Z,12.40
2017-09-12T21:30:55.133Z,12.40
2017-09-12T21:33:22.663Z,12.40
2017-09-12T21:35:50.311Z,12.40
2017-09-12T21:38:17.831Z,12.30
2017-09-12T21:40:45.340Z,12.30
2017-09-12T21:43:12.861Z,12.30
2017-09-12T21:45:41.491Z,12.20
2017-09-12T21:48:09.404Z,12.20
2017-09-12T21:50:38.106Z,12.30
2017-09-12T21:53:06.390Z,12.30
2017-09-12T21:55:34.660Z,12.20
2017-09-12T21:58:02.318Z,12.20
2017-09-12T22:00:29.967Z,12.20
2017-09-12T22:02:59.162Z,12.20
2017-09-12T22:05:27.442Z,12.20
2017-09-12T22:07:56.448Z,12.20
2017-09-12T22:10:24.088Z,12.20
2017-09-12T22:12:51.579Z,12.20
2017-09-12T22:15:19.195Z,12.20
2017-09-12T22:17:46.864Z,12.20
2017-09-12T22:20:14.524Z,12.20
2017-09-12T22:22:42.184Z,12.10
2017-09-12T22:25:09.707Z,12.20
2017-09-12T22:27:38.083Z,12.20
2017-09-12T22:30:06.171Z,12.20
2017-09-12T22:32:33.667Z,12.20
2017-09-12T22:35:02.107Z,12.10
2017-09-12T22:37:29.620Z,12.10
2017-09-12T22:39:57.148Z,12.10
2017-09-12T22:42:24.647Z,12.10
2017-09-12T22:44:52.163Z,12.10
2017-09-12T22:47:20.050Z,12.10
2017-09-12T22:49:47.568Z,12.10
2017-09-12T22:52:15.914Z,12.10
2017-09-12T22:54:43.575Z,12.10
2017-09-12T22:57:11.470Z,12.10
2017-09-12T22:59:39.751Z,12.10
2017-09-12T23:02:07.643Z,12.20
2017-09-12T23:04:35.160Z,12.30
2017-09-12T23:07:03.791Z,12.30
2017-09-12T23:09:33.030Z,12.30
2017-09-12T23:12:00.551Z,12.30
2017-09-12T23:14:29.179Z,12.30
2017-09-12T23:16:57.570Z,12.30
2017-09-12T23:19:25.063Z,12.30
2017-09-12T23:21:52.564Z,12.30
2017-09-12T23:24:20.191Z,12.20
2017-09-12T23:26:47.846Z,12.20
2017-09-12T23:29:15.335Z,12.20
2017-09-12T23:31:43.791Z,12.20
2017-09-12T23:34:11.292Z,12.20
2017-09-12T23:36:38.805Z,12.30
2017-09-12T23:39:06.363Z,12.30
2017-09-12T23:41:34.007Z,12.30
2017-09-12T23:44:02.076Z,12.30
2017-09-12T23:46:29.574Z,12.30
2017-09-12T23:48:57.087Z,12.30
2017-09-12T23:51:24.654Z,12.30
2017-09-12T23:53:52.166Z,12.30
2017-09-12T23:56:19.768Z,12.30
2017-09-12T23:58:47.267Z,12.30
